Station info - map view · info · telemetry · weather · raw · status · beacons · messages · bulletins · browse · moving · my account
Callsign, ship name or locator: Clear       
It is possible to search using wildcards (*?) after a prefix. Example: OH*
APRS station KB0JIT-1 - show graphs
Map loading...
Comment: MT-RTG
Mic-E message: In service
Last status: MicroTrak FA v1.42
Location: 40°34.07' N 98°25.08' W - locator EN00SN96UG - show map - static map
2.0 miles Southwest bearing 231° from Hastings, Adams County, Nebraska, United States [?]
17.2 miles West bearing 258° from Harvard, Clay County, Nebraska, United States
25.0 miles South bearing 189° from Grand Island, Hall County, Nebraska, United States
35.9 miles East bearing 104° from Kearney, Buffalo County, Nebraska, United States
Last position: 2021-06-23 12:54:04 EDT (3h46m ago)
2021-06-23 11:54:04 CDT local time at Hastings, United States [?]
Altitude: 1942 ft
Course: 269°
Speed: 51 MPH
Last telemetry: 2021-06-23 12:54:04 EDT (3h46m ago) – show telemetry
Battery: 12.101 Volt, Temp: 83.552 Deg.F
Device: Byonics: TinyTrak3 (tracker)
Last path: KB0JIT-1>T0ST0W via WIDE1-1,WIDE2-1,qAR,KD0JCP-10 (good)
Positions stored: 4531
Other SSIDs: KB0JIT
Stations near current position of KB0JIT-1 - show more
callsign distance last heard - EDT      callsign distance last heard - EDT
KB0VMZ-92.0 miles 352°2021-06-20 08:54:39 KD0JCP-92.2 miles 28°2021-06-19 22:45:51
CW09652.2 miles 27°2021-06-23 16:38:00 KD0JCP-102.2 miles 28°2021-06-23 16:38:02
WD0DXD-112.2 miles 28°2021-06-20 14:50:29 KC0EQA-33.2 miles 64°2021-06-22 20:02:50
KC0EQA-N3.2 miles 64°2021-06-23 16:35:57 KC0EQA C3.2 miles 64°2021-06-23 16:34:57
KC0EQA-C3.2 miles 64°2021-06-23 16:35:07 KC0EQA-Y3.2 miles 64°2021-06-22 19:54:07
DW54813.7 miles 28°2021-06-23 16:35:50 KD0KX-N3.8 miles 54°2021-06-22 23:59:50
WX0GID-15.8 miles 18°2021-06-23 16:39:43 KA0DIZ-911.3 miles 143°2021-06-23 10:33:50
kd0qeo12.0 miles 314°2021-06-23 16:31:15 FW289412.4 miles 12°2021-06-23 16:28:35
EW650414.4 miles 12°2021-06-23 16:40:41 K0RSI-918.0 miles 10°2021-06-22 07:49:54
NI0P-1218.8 miles 332°2021-06-20 19:18:13 KO4OYA-919.2 miles 24°2021-06-23 09:03:42
Stations which heard KB0JIT-1 directly on radio –
callsign pkts first heard - EDT last heard longest (tx => rx) longest at - EDT
N0ZQR 1 2021-06-23 08:05:04 2021-06-23 08:05:04 EN12TK > EN12LF 36.8 miles 248° 2021-06-23 08:05:04
WB0WNX 63 2021-06-21 18:22:34 2021-06-23 08:25:00 EN12TK > EN12TN 8.3 miles 340° 2021-06-23 08:03:10
KC0MWM-1 3 2021-06-13 19:04:14 2021-06-13 19:10:10 EN00VT > EN00TW 9.5 miles 318° 2021-06-13 19:10:10
LAMAR 2 2021-06-13 11:58:57 2021-06-13 12:15:28 DM88ML > DM88QA 36.1 miles 150° 2021-06-13 11:58:57
METHOD 1 2021-06-11 17:54:26 2021-06-11 17:54:26 DM78OH > DM68XK 70.0 miles 278° 2021-06-11 17:54:26
CFALLS 1 2021-06-18 10:09:31 2021-06-18 10:09:31 EN32TK > EN32SM 5.3 miles 327° 2021-06-18 10:09:31
CLMBUS 32 2021-06-14 09:47:29 2021-06-23 11:04:10 EN11LL > EN11HH 17.8 miles 232° 2021-06-14 10:50:12
MONDAM 7 2021-06-14 12:06:02 2021-06-23 08:58:48 EN12SB > EN21AQ 36.4 miles 132° 2021-06-23 08:56:49
KB0JBF-3 12 2021-06-14 15:46:49 2021-06-18 11:11:14 EN32IK > EN32FL 12.4 miles 283° 2021-06-14 16:02:46
W0MCW-4 20 2021-06-14 15:11:00 2021-06-18 11:49:03 EN32AK > EN22VL 12.2 miles 281° 2021-06-18 11:27:09
MINDEN 1 2021-06-14 12:21:57 2021-06-14 12:21:57 EN21BN > EN21FJ 21.4 miles 121° 2021-06-14 12:21:57
KD0JCP-10 9 2021-06-13 18:38:19 2021-06-23 12:54:04 EN00SN > EN00TO 4.7 miles 65° 2021-06-13 18:38:19
AJ0A 1 2021-06-13 19:06:12 2021-06-13 19:06:12 EN00UT > EN00TV 5.6 miles 333° 2021-06-13 19:06:12
WX0GID-1 4 2021-06-13 18:52:17 2021-06-13 18:58:15 EN00TR > EN00TP 6.3 miles 183° 2021-06-13 18:58:15
K9NHP-1 72 2021-06-21 18:32:31 2021-06-23 08:26:57 EN12TK > EN12SL 4.3 miles 297° 2021-06-23 08:03:04
1VIEW-10 1 2021-06-13 12:45:18 2021-06-13 12:45:18 DM88QT > DM88RS 5.1 miles 96° 2021-06-13 12:45:18
NW0K-10 7 2021-06-13 14:30:47 2021-06-13 15:15:20 DM99KI > DM99LJ 2.6 miles 66° 2021-06-13 14:30:47
WA6IFI-12 147 2021-05-31 20:49:38 2021-06-13 10:19:28 DM78RF > DM78MS 43.8 miles 326° 2021-06-06 15:00:37
COLBY 19 2021-06-13 14:20:50 2021-06-13 15:31:17 DM99PL > DM99LJ 18.0 miles 254° 2021-06-13 15:31:17
GOODLA 10 2021-06-13 13:53:01 2021-06-13 14:10:54 DM99AH > DM99DH 12.6 miles 91° 2021-06-13 13:53:01

Only position packets which were originated by the station are shown here. The range statistics show some extra long hops, because some digipeaters do not correctly add themselves to the digipeater path. Please check the raw packets.
About this site
This page shows real-time information collected from the Automatic Position Reporting System Internet network (APRS-IS). APRS is used by amateur (ham) radio operators to transmit real-time position information, weather data, telemetry and messages over the radio. A vehicle equipped with a GPS receiver, a VHF transmitter or HF transceiver and a small computer device called a tracker transmits it's location, speed and course in a small data packet, which is then received by a nearby iGate receiving site which forwards the packet on the Internet. Systems connected to the Internet can send information on the APRS-IS without a radio transmitter, or collect and display information transmitted anywhere in the world.
User guide · FAQ · Blog · Discussion group · Linking to aprs.fi · AIS sites · Service status · Database statistics · Advertising on aprs.fi · Technical details · API · Change log · Planned changes · Credits and thanks · Terms Of Service · iPhone/iPad APRS